createdAt,value
2024-03-09T00:01:18.578Z,73.13
2024-03-09T00:03:46.520Z,73.13
2024-03-09T00:06:14.386Z,72.83
2024-03-09T00:08:44.442Z,72.56
2024-03-09T00:11:12.420Z,73.29
2024-03-09T00:13:41.953Z,73.31
2024-03-09T00:16:10.024Z,72.74
2024-03-09T00:18:44.315Z,72.74
2024-03-09T00:21:13.738Z,72.73
2024-03-09T00:23:42.664Z,72.92
2024-03-09T00:26:11.385Z,73.22
2024-03-09T00:28:42.179Z,72.88
2024-03-09T00:31:10.681Z,72.77
2024-03-09T00:33:39.520Z,73.29
2024-03-09T00:36:08.585Z,73.68
2024-03-09T00:38:36.564Z,73.19
2024-03-09T00:41:05.794Z,73.16
2024-03-09T00:43:37.296Z,72.90
2024-03-09T00:46:08.135Z,73.06
2024-03-09T00:48:36.833Z,73.21
2024-03-09T00:51:04.872Z,72.96
2024-03-09T00:53:32.708Z,73.15
2024-03-09T00:56:00.902Z,73.78
2024-03-09T00:58:29.664Z,73.21
2024-03-09T01:00:57.541Z,73.29
2024-03-09T01:03:30.322Z,72.95
2024-03-09T01:05:58.652Z,73.28
2024-03-09T01:08:26.580Z,73.35
2024-03-09T01:10:54.447Z,73.07
2024-03-09T01:13:24.140Z,73.04
2024-03-09T01:15:52.518Z,73.40
2024-03-09T01:18:20.945Z,73.36
2024-03-09T01:20:50.130Z,73.07
2024-03-09T01:23:18.551Z,73.53
2024-03-09T01:25:46.392Z,73.20
2024-03-09T01:28:14.266Z,73.07
2024-03-09T01:30:42.052Z,73.26
2024-03-09T01:33:10.526Z,73.33
2024-03-09T01:35:38.477Z,73.81
2024-03-09T01:38:09.523Z,73.16
2024-03-09T01:40:37.457Z,73.99
2024-03-09T01:43:05.536Z,74.05
2024-03-09T01:45:34.033Z,73.58
2024-03-09T01:48:02.242Z,74.13
2024-03-09T01:50:30.118Z,73.33
2024-03-09T01:52:58.105Z,73.50
2024-03-09T01:55:30.205Z,73.70
2024-03-09T01:57:58.880Z,73.91
2024-03-09T02:00:26.925Z,74.19
2024-03-09T02:02:56.001Z,73.64
2024-03-09T02:05:26.024Z,73.81
2024-03-09T02:07:53.942Z,74.29
2024-03-09T02:10:21.998Z,73.77
2024-03-09T02:12:51.185Z,73.95
2024-03-09T02:15:19.085Z,74.14
2024-03-09T02:17:48.950Z,73.58
2024-03-09T02:20:19.397Z,74.21
2024-03-09T02:22:49.046Z,74.43
2024-03-09T02:25:20.136Z,74.38
2024-03-09T02:27:48.157Z,74.10
2024-03-09T02:30:16.666Z,74.29
2024-03-09T02:32:44.761Z,74.15
2024-03-09T02:35:12.961Z,73.99
2024-03-09T02:37:41.550Z,74.24
2024-03-09T02:40:13.219Z,74.45
2024-03-09T02:43:03.489Z,74.42
2024-03-09T02:45:31.426Z,74.54
2024-03-09T02:47:59.769Z,74.53
2024-03-09T02:50:28.921Z,73.99
2024-03-09T02:52:57.212Z,73.93
2024-03-09T02:55:27.963Z,74.14
2024-03-09T02:57:57.459Z,74.10
2024-03-09T03:00:27.630Z,74.04
2024-03-09T03:03:13.159Z,74.68
2024-03-09T03:05:43.113Z,74.53
2024-03-09T03:08:11.037Z,74.51
2024-03-09T03:10:41.028Z,73.86
2024-03-09T03:13:10.481Z,74.58
2024-03-09T03:15:39.040Z,74.55
2024-03-09T03:18:09.749Z,73.96
2024-03-09T03:20:37.802Z,74.20
2024-03-09T03:23:06.448Z,74.22
2024-03-09T03:25:35.974Z,74.12
2024-03-09T03:28:06.948Z,74.17
2024-03-09T03:30:38.084Z,74.78
2024-03-09T03:33:07.251Z,74.81
2024-03-09T03:35:35.361Z,74.89
2024-03-09T03:38:03.710Z,74.50
2024-03-09T03:40:32.321Z,74.83
2024-03-09T03:43:00.283Z,74.91
2024-03-09T03:45:28.165Z,74.43
2024-03-09T03:47:57.466Z,74.58
2024-03-09T03:50:25.318Z,74.53
2024-03-09T03:52:53.209Z,74.76
2024-03-09T03:55:21.620Z,74.43
2024-03-09T03:57:52.348Z,75.13
2024-03-09T04:00:22.408Z,74.59
2024-03-09T04:02:51.398Z,74.94
2024-03-09T04:05:20.630Z,74.65
2024-03-09T04:07:49.404Z,75.16
2024-03-09T04:10:19.780Z,74.49
2024-03-09T04:12:47.659Z,75.26
2024-03-09T04:15:15.765Z,74.75
2024-03-09T04:17:43.782Z,74.91
2024-03-09T04:20:17.194Z,75.21
2024-03-09T04:22:51.618Z,75.21
2024-03-09T04:25:20.693Z,75.02
2024-03-09T04:27:51.716Z,75.24
2024-03-09T04:30:19.554Z,74.92
2024-03-09T04:32:47.438Z,75.14
2024-03-09T04:35:15.737Z,75.07
2024-03-09T04:37:43.589Z,75.26
2024-03-09T04:40:18.304Z,75.41
2024-03-09T04:42:48.058Z,75.36
2024-03-09T04:45:20.072Z,75.60
2024-03-09T04:47:48.052Z,75.39
2024-03-09T04:50:19.571Z,75.21
2024-03-09T04:52:48.738Z,75.21
2024-03-09T04:55:23.299Z,75.22
2024-03-09T04:57:51.420Z,75.46
2024-03-09T05:00:22.288Z,75.59
2024-03-09T05:02:50.807Z,75.54
2024-03-09T05:05:20.719Z,75.34
2024-03-09T05:07:49.765Z,75.63
2024-03-09T05:10:19.582Z,75.58
2024-03-09T05:12:54.555Z,75.79
2024-03-09T05:15:22.931Z,75.66
2024-03-09T05:17:50.857Z,75.71
2024-03-09T05:20:23.899Z,75.40
2024-03-09T05:22:52.139Z,75.65
2024-03-09T05:25:22.454Z,75.55
2024-03-09T05:27:53.259Z,75.54
2024-03-09T05:30:26.572Z,75.84
2024-03-09T05:32:55.874Z,75.69
2024-03-09T05:35:24.890Z,75.65
2024-03-09T05:37:52.853Z,75.95
2024-03-09T05:40:21.471Z,75.93
2024-03-09T05:42:51.543Z,75.76
2024-03-09T05:45:22.312Z,76.22
2024-03-09T05:47:51.722Z,76.01
2024-03-09T05:50:20.160Z,75.95
2024-03-09T05:52:49.462Z,76.21
2024-03-09T05:55:18.118Z,76.12
2024-03-09T05:57:50.064Z,76.23
2024-03-09T06:00:21.459Z,76.26
2024-03-09T06:02:49.486Z,76.20
2024-03-09T06:05:17.782Z,76.08
2024-03-09T06:07:46.842Z,76.23
2024-03-09T06:10:18.482Z,76.41
2024-03-09T06:12:48.367Z,76.30
2024-03-09T06:15:17.267Z,76.40
2024-03-09T06:17:48.111Z,76.61
2024-03-09T06:20:18.486Z,76.57
2024-03-09T06:22:47.413Z,76.37
2024-03-09T06:25:24.147Z,76.47
2024-03-09T06:27:53.626Z,76.59
2024-03-09T06:30:22.841Z,76.65
2024-03-09T06:32:54.826Z,76.46
2024-03-09T06:35:26.994Z,76.72
2024-03-09T06:37:59.958Z,76.73
2024-03-09T06:40:28.148Z,76.78
2024-03-09T06:43:00.502Z,76.81
2024-03-09T06:45:28.818Z,76.62
2024-03-09T06:48:00.042Z,76.66
2024-03-09T06:50:28.705Z,76.76
2024-03-09T06:52:57.144Z,76.65
2024-03-09T06:55:26.979Z,76.94
2024-03-09T06:57:55.055Z,76.77
2024-03-09T07:00:26.579Z,77.00
2024-03-09T07:02:54.993Z,76.59
2024-03-09T07:05:25.722Z,76.76
2024-03-09T07:07:53.570Z,77.11
2024-03-09T07:10:22.671Z,77.08
2024-03-09T07:12:51.094Z,76.91
2024-03-09T07:15:21.468Z,77.18
2024-03-09T07:17:50.985Z,77.36
2024-03-09T07:20:20.168Z,77.31
2024-03-09T07:22:51.130Z,77.27
2024-03-09T07:25:24.842Z,77.62
2024-03-09T07:27:53.424Z,77.36
2024-03-09T07:30:21.168Z,77.19
2024-03-09T07:32:50.738Z,77.71
2024-03-09T07:35:20.864Z,77.46
2024-03-09T07:37:53.513Z,77.67
2024-03-09T07:40:23.027Z,77.76
2024-03-09T07:42:51.527Z,77.73
2024-03-09T07:45:19.431Z,77.87
2024-03-09T07:47:50.714Z,77.72
2024-03-09T07:50:19.981Z,77.82
2024-03-09T07:52:49.944Z,77.86
2024-03-09T07:55:22.365Z,78.15
2024-03-09T07:57:50.593Z,77.40
2024-03-09T08:00:20.408Z,77.47
2024-03-09T08:02:49.191Z,77.89
2024-03-09T08:05:17.840Z,78.39
2024-03-09T08:07:46.671Z,77.47
2024-03-09T08:10:15.434Z,78.20
2024-03-09T08:12:44.813Z,78.55
2024-03-09T08:15:13.856Z,77.78
2024-03-09T08:17:41.759Z,77.71
2024-03-09T08:20:10.811Z,78.52
2024-03-09T08:22:41.100Z,78.33
2024-03-09T08:25:10.542Z,78.19
2024-03-09T08:27:39.532Z,77.85
2024-03-09T08:30:14.445Z,78.86
2024-03-09T08:32:43.546Z,78.46
2024-03-09T08:35:11.443Z,78.13
2024-03-09T08:37:39.725Z,78.18
2024-03-09T08:40:10.118Z,78.59
2024-03-09T08:42:38.136Z,78.42
2024-03-09T08:45:10.474Z,78.33
2024-03-09T08:47:38.476Z,78.66
2024-03-09T08:50:11.602Z,78.60
2024-03-09T08:52:40.112Z,78.73
2024-03-09T08:55:11.535Z,79.01
2024-03-09T08:57:39.838Z,78.95
2024-03-09T09:00:11.395Z,79.05
2024-03-09T09:02:39.255Z,78.79
2024-03-09T09:05:12.516Z,78.91
2024-03-09T09:07:41.640Z,78.55
2024-03-09T09:10:12.502Z,79.01
2024-03-09T09:12:40.978Z,78.43
2024-03-09T09:15:11.596Z,78.53
2024-03-09T09:17:41.333Z,79.03
2024-03-09T09:20:12.460Z,78.67
2024-03-09T09:22:40.769Z,78.36
2024-03-09T09:25:10.685Z,79.05
2024-03-09T09:27:39.331Z,79.11
2024-03-09T09:30:08.140Z,78.45
2024-03-09T09:32:39.465Z,78.49
2024-03-09T09:35:07.893Z,79.20
2024-03-09T09:37:36.034Z,78.57
2024-03-09T09:40:04.077Z,78.43
2024-03-09T09:42:33.367Z,78.19
2024-03-09T09:45:02.056Z,78.84
2024-03-09T09:47:31.669Z,78.53
2024-03-09T09:50:02.538Z,78.74
2024-03-09T09:52:33.839Z,79.09
2024-03-09T09:55:03.199Z,78.36
2024-03-09T09:57:32.263Z,78.96
2024-03-09T10:00:00.354Z,78.67
2024-03-09T10:02:28.359Z,79.14
2024-03-09T10:04:56.946Z,78.31
2024-03-09T10:07:26.686Z,78.61
2024-03-09T10:09:54.813Z,79.26
2024-03-09T10:12:23.859Z,78.37
2024-03-09T10:14:53.024Z,79.21
2024-03-09T10:17:22.360Z,78.86
2024-03-09T10:19:51.256Z,79.02
2024-03-09T10:22:19.343Z,79.17
2024-03-09T10:24:55.613Z,78.82
2024-03-09T10:27:27.768Z,78.35
2024-03-09T10:30:11.783Z,78.50
2024-03-09T10:32:42.535Z,78.28
2024-03-09T10:35:12.406Z,78.97
2024-03-09T10:37:41.318Z,79.02
2024-03-09T10:40:14.050Z,78.64
2024-03-09T10:42:44.896Z,78.46
2024-03-09T10:45:15.459Z,78.91
2024-03-09T10:47:48.339Z,78.77
2024-03-09T10:50:23.695Z,78.48
2024-03-09T10:53:02.804Z,78.29
2024-03-09T10:55:45.590Z,78.67
2024-03-09T10:58:16.343Z,78.74
2024-03-09T11:00:50.789Z,78.85
2024-03-09T11:03:24.099Z,78.53
2024-03-09T11:05:55.128Z,78.54
2024-03-09T11:08:24.743Z,78.52
2024-03-09T11:10:54.998Z,78.55
2024-03-09T11:13:23.646Z,78.48
2024-03-09T11:15:56.267Z,78.39
2024-03-09T11:18:24.894Z,78.37
2024-03-09T11:20:55.314Z,78.41
2024-03-09T11:23:26.389Z,78.41
2024-03-09T11:25:59.255Z,78.24
2024-03-09T11:28:29.888Z,78.29
2024-03-09T11:31:11.968Z,78.39
2024-03-09T11:33:50.759Z,78.32
2024-03-09T11:36:38.797Z,78.21
2024-03-09T11:39:06.820Z,78.06
2024-03-09T11:41:37.605Z,78.43
2024-03-09T11:44:06.617Z,78.15
2024-03-09T11:46:36.410Z,78.19
2024-03-09T11:49:05.714Z,78.01
2024-03-09T11:51:35.993Z,78.09
2024-03-09T11:54:05.172Z,78.14
2024-03-09T11:56:33.461Z,78.19
2024-03-09T11:59:03.530Z,77.74
2024-03-09T12:01:31.379Z,77.81
2024-03-09T12:04:01.676Z,78.05
2024-03-09T12:06:30.562Z,77.87
2024-03-09T12:08:59.205Z,77.50
2024-03-09T12:11:30.293Z,77.54
2024-03-09T12:13:58.456Z,77.72
2024-03-09T12:16:29.098Z,77.79
2024-03-09T12:18:59.596Z,77.28
2024-03-09T12:21:29.117Z,77.68
2024-03-09T12:23:59.800Z,77.67
2024-03-09T12:26:32.090Z,77.43
2024-03-09T12:29:04.569Z,77.59
2024-03-09T12:31:35.226Z,77.02
2024-03-09T12:34:06.487Z,77.10
2024-03-09T12:36:35.214Z,77.47
2024-03-09T12:39:17.511Z,77.29
2024-03-09T12:41:51.028Z,77.16
2024-03-09T12:44:19.347Z,77.27
2024-03-09T12:46:48.946Z,76.94
2024-03-09T12:49:17.043Z,77.08
2024-03-09T12:51:47.957Z,77.10
2024-03-09T12:54:15.993Z,77.13
2024-03-09T12:56:48.889Z,76.87
2024-03-09T12:59:26.805Z,77.03
2024-03-09T13:01:56.717Z,76.89
2024-03-09T13:04:27.664Z,76.73
2024-03-09T13:06:58.926Z,76.77
2024-03-09T13:09:32.441Z,76.57
2024-03-09T13:12:01.662Z,76.41
2024-03-09T13:14:32.141Z,76.21
2024-03-09T13:17:01.414Z,76.41
2024-03-09T13:19:29.372Z,76.33
2024-03-09T13:21:59.252Z,76.30
2024-03-09T13:24:29.041Z,76.46
2024-03-09T13:26:57.328Z,76.19
2024-03-09T13:29:29.741Z,76.55
2024-03-09T13:31:59.101Z,76.14
2024-03-09T13:34:31.176Z,75.89
2024-03-09T13:37:00.074Z,76.25
2024-03-09T13:39:35.688Z,76.01
2024-03-09T13:42:09.741Z,75.86
2024-03-09T13:44:38.495Z,75.88
2024-03-09T13:47:06.898Z,75.80
2024-03-09T13:49:37.241Z,76.02
2024-03-09T13:52:05.891Z,75.53
2024-03-09T13:54:33.733Z,75.80
2024-03-09T13:57:01.549Z,75.71
2024-03-09T13:59:29.889Z,75.53
2024-03-09T14:02:00.553Z,75.53
2024-03-09T14:04:29.825Z,75.47
2024-03-09T14:07:07.643Z,75.21
2024-03-09T14:09:49.397Z,75.13
2024-03-09T14:12:21.312Z,74.94
2024-03-09T14:14:53.605Z,75.23
2024-03-09T14:17:21.943Z,74.82
2024-03-09T14:19:52.211Z,74.86
2024-03-09T14:22:27.498Z,74.83
2024-03-09T14:24:58.472Z,74.96
2024-03-09T14:27:26.918Z,74.90
2024-03-09T14:29:55.391Z,74.66
2024-03-09T14:32:23.836Z,74.47
2024-03-09T14:34:52.066Z,74.50
2024-03-09T14:37:21.809Z,74.14
2024-03-09T14:39:49.700Z,74.57
2024-03-09T14:42:18.951Z,74.19
2024-03-09T14:44:48.488Z,74.35
2024-03-09T14:47:16.515Z,74.00
2024-03-09T14:49:45.424Z,73.94
2024-03-09T14:52:14.287Z,73.99
2024-03-09T14:54:43.885Z,74.00
2024-03-09T14:57:13.353Z,73.75
2024-03-09T14:59:41.255Z,73.81
2024-03-09T15:02:08.769Z,73.77
2024-03-09T15:04:37.026Z,73.93
2024-03-09T15:07:06.963Z,73.63
2024-03-09T15:09:38.750Z,73.72
2024-03-09T15:12:09.948Z,73.83
2024-03-09T15:14:37.870Z,73.48
2024-03-09T15:17:10.819Z,73.71
2024-03-09T15:19:38.902Z,72.96
2024-03-09T15:22:06.749Z,73.33
2024-03-09T15:24:34.634Z,73.18
2024-03-09T15:27:04.051Z,72.88
2024-03-09T15:29:34.960Z,73.30
2024-03-09T15:32:07.062Z,72.88
2024-03-09T15:34:35.071Z,73.24
2024-03-09T15:37:02.910Z,72.77
2024-03-09T15:39:33.061Z,72.67
2024-03-09T15:42:01.636Z,73.23
2024-03-09T15:44:29.519Z,72.63
2024-03-09T15:46:58.750Z,72.67
2024-03-09T15:49:28.796Z,72.59
2024-03-09T15:51:56.654Z,72.82
2024-03-09T15:54:25.933Z,72.40
2024-03-09T15:56:54.018Z,72.74
2024-03-09T15:59:22.617Z,72.63
2024-03-09T16:01:52.903Z,72.35
2024-03-09T16:04:22.502Z,72.30
2024-03-09T16:06:50.814Z,72.22
2024-03-09T16:09:22.008Z,72.48
2024-03-09T16:11:51.240Z,72.29
2024-03-09T16:16:46.933Z,72.18
2024-03-09T16:19:15.773Z,72.34
2024-03-09T16:21:44.988Z,71.84
2024-03-09T16:24:12.829Z,72.06
2024-03-09T16:26:40.955Z,72.14
2024-03-09T16:29:08.995Z,72.01
2024-03-09T16:31:37.981Z,71.96
2024-03-09T16:34:07.990Z,71.94
2024-03-09T16:36:36.558Z,72.19
2024-03-09T16:39:06.631Z,71.90
2024-03-09T16:41:34.457Z,71.86
2024-03-09T16:44:04.801Z,71.89
2024-03-09T16:46:33.189Z,71.80
2024-03-09T16:49:01.087Z,71.74
2024-03-09T16:51:28.917Z,71.67
2024-03-09T16:53:56.768Z,71.71
2024-03-09T16:56:29.658Z,71.73
2024-03-09T16:58:59.763Z,71.85
2024-03-09T17:01:31.193Z,71.64
2024-03-09T17:04:02.875Z,71.77
2024-03-09T17:06:33.694Z,72.09
2024-03-09T17:09:01.717Z,71.59
2024-03-09T17:11:32.002Z,71.57
2024-03-09T17:14:00.138Z,71.75
2024-03-09T17:16:28.894Z,71.17
2024-03-09T17:18:56.875Z,71.56
2024-03-09T17:21:25.638Z,71.37
2024-03-09T17:23:55.125Z,71.50
2024-03-09T17:26:23.261Z,71.47
2024-03-09T17:28:53.589Z,71.13
2024-03-09T17:31:22.777Z,71.04
2024-03-09T17:33:51.397Z,71.49
2024-03-09T17:36:19.721Z,71.21
2024-03-09T17:38:48.769Z,71.14
2024-03-09T17:41:18.720Z,71.36
2024-03-09T17:43:48.274Z,71.43
2024-03-09T17:46:18.215Z,71.59
2024-03-09T17:48:46.232Z,71.57
2024-03-09T17:51:17.373Z,71.38
2024-03-09T17:53:46.533Z,70.93
2024-03-09T17:56:16.414Z,71.41
2024-03-09T17:58:46.962Z,71.17
2024-03-09T18:01:15.086Z,71.18
2024-03-09T18:03:44.971Z,71.12
2024-03-09T18:06:13.775Z,70.74
2024-03-09T18:08:44.792Z,71.46
2024-03-09T18:11:12.925Z,70.70
2024-03-09T18:13:40.892Z,71.02
2024-03-09T18:16:13.004Z,70.60
2024-03-09T18:18:41.009Z,70.80
2024-03-09T18:21:11.334Z,71.11
2024-03-09T18:23:39.254Z,70.87
2024-03-09T18:26:09.734Z,71.60
2024-03-09T18:28:38.062Z,71.02
2024-03-09T18:31:08.999Z,70.46
2024-03-09T18:33:36.950Z,71.15
2024-03-09T18:36:06.167Z,70.89
2024-03-09T18:38:35.518Z,71.25
2024-03-09T18:41:06.179Z,70.47
2024-03-09T18:43:34.283Z,70.79
2024-03-09T18:46:03.180Z,71.29
2024-03-09T18:48:31.438Z,71.00
2024-03-09T18:50:59.316Z,70.44
2024-03-09T18:53:27.161Z,71.13
2024-03-09T18:55:56.525Z,70.66
2024-03-09T18:58:24.395Z,70.62
2024-03-09T19:00:52.239Z,71.03
2024-03-09T19:03:22.346Z,71.20
2024-03-09T19:05:51.042Z,71.57
2024-03-09T19:08:19.293Z,70.96
2024-03-09T19:10:47.351Z,71.07
2024-03-09T19:13:18.171Z,71.32
2024-03-09T19:15:46.169Z,70.92
2024-03-09T19:18:15.867Z,71.02
2024-03-09T19:20:44.189Z,70.76
2024-03-09T19:23:12.642Z,70.73
2024-03-09T19:25:44.333Z,70.64
2024-03-09T19:28:12.996Z,70.71
2024-03-09T19:30:42.195Z,71.40
2024-03-09T19:33:10.117Z,70.97
2024-03-09T19:35:38.893Z,70.88
2024-03-09T19:38:06.943Z,71.09
2024-03-09T19:40:34.824Z,71.27
2024-03-09T19:43:02.818Z,71.34
2024-03-09T19:45:31.965Z,71.10
2024-03-09T19:48:01.679Z,71.50
2024-03-09T19:50:32.901Z,71.69
2024-03-09T19:53:00.833Z,70.81
2024-03-09T19:55:30.604Z,70.80
2024-03-09T19:57:59.402Z,71.23
2024-03-09T20:00:29.880Z,71.30
2024-03-09T20:02:58.306Z,71.01
2024-03-09T20:05:29.603Z,71.69
2024-03-09T20:07:59.358Z,71.31
2024-03-09T20:10:30.669Z,71.30
2024-03-09T20:13:00.930Z,71.33
2024-03-09T20:15:29.549Z,71.01
2024-03-09T20:17:59.044Z,71.26
2024-03-09T20:20:29.979Z,71.42
2024-03-09T20:22:58.972Z,71.39
2024-03-09T20:25:27.849Z,71.04
2024-03-09T20:27:56.231Z,71.53
2024-03-09T20:30:24.521Z,71.37
2024-03-09T20:32:52.820Z,71.80
2024-03-09T20:35:20.843Z,71.18
2024-03-09T20:37:51.268Z,71.37
2024-03-09T20:40:20.926Z,71.74
2024-03-09T20:42:50.448Z,71.66
2024-03-09T20:45:19.916Z,71.37
2024-03-09T20:47:48.178Z,71.49
2024-03-09T20:50:17.704Z,71.78
2024-03-09T20:52:48.591Z,71.82
2024-03-09T20:55:17.925Z,71.36
2024-03-09T20:57:45.754Z,71.48
2024-03-09T21:00:19.220Z,71.67
2024-03-09T21:02:47.477Z,71.81
2024-03-09T21:05:15.520Z,71.87
2024-03-09T21:07:43.683Z,72.17
2024-03-09T21:10:12.513Z,71.62
2024-03-09T21:12:42.379Z,71.68
2024-03-09T21:15:10.883Z,71.98
2024-03-09T21:17:38.915Z,71.61
2024-03-09T21:20:13.014Z,71.65
2024-03-09T21:22:41.378Z,71.93
2024-03-09T21:25:11.605Z,71.88
2024-03-09T21:27:43.656Z,72.15
2024-03-09T21:30:16.042Z,72.30
2024-03-09T21:32:48.653Z,71.85
2024-03-09T21:35:19.580Z,72.40
2024-03-09T21:37:52.538Z,72.29
2024-03-09T21:40:21.653Z,71.88
2024-03-09T21:42:52.431Z,72.36
2024-03-09T21:45:20.920Z,72.11
2024-03-09T21:47:49.296Z,72.59
2024-03-09T21:50:22.688Z,72.63
2024-03-09T21:52:52.815Z,72.09
2024-03-09T21:55:20.802Z,72.75
2024-03-09T21:57:48.679Z,71.82
2024-03-09T22:00:25.856Z,72.56
2024-03-09T22:02:56.597Z,72.05
2024-03-09T22:05:27.188Z,72.34
2024-03-09T22:07:57.091Z,72.20
2024-03-09T22:10:25.517Z,72.82
2024-03-09T22:12:55.968Z,72.40
2024-03-09T22:15:28.011Z,72.20
2024-03-09T22:17:57.304Z,72.02
2024-03-09T22:20:26.281Z,72.69
2024-03-09T22:22:54.368Z,72.07
2024-03-09T22:25:26.877Z,72.94
2024-03-09T22:27:55.526Z,72.64
2024-03-09T22:30:23.488Z,72.80
2024-03-09T22:32:53.631Z,72.70
2024-03-09T22:35:22.503Z,72.64
2024-03-09T22:37:51.570Z,73.24
2024-03-09T22:40:21.125Z,72.75
2024-03-09T22:42:49.124Z,72.32
2024-03-09T22:45:17.706Z,72.42
2024-03-09T22:47:47.264Z,72.51
2024-03-09T22:50:18.748Z,73.28
2024-03-09T22:52:46.733Z,72.90
2024-03-09T22:55:16.250Z,73.23
2024-03-09T22:57:44.803Z,73.19
2024-03-09T23:00:26.453Z,72.70
2024-03-09T23:06:36.509Z,72.89
2024-03-09T23:09:04.523Z,72.85
2024-03-09T23:11:33.032Z,73.55
2024-03-09T23:14:02.947Z,72.89
2024-03-09T23:16:31.557Z,73.11
2024-03-09T23:18:59.563Z,73.48
2024-03-09T23:21:27.657Z,73.25
2024-03-09T23:23:56.860Z,73.51
2024-03-09T23:26:26.392Z,73.54
2024-03-09T23:28:54.295Z,73.45
2024-03-09T23:31:22.564Z,73.43
2024-03-09T23:33:50.719Z,73.33
2024-03-09T23:36:18.476Z,73.12
2024-03-09T23:38:47.213Z,73.38
2024-03-09T23:41:17.081Z,73.19
2024-03-09T23:43:46.894Z,73.70
2024-03-09T23:46:14.691Z,73.67
2024-03-09T23:48:42.680Z,73.19
2024-03-09T23:51:11.638Z,73.84
2024-03-09T23:53:39.488Z,73.79
2024-03-09T23:56:08.664Z,73.88
2024-03-09T23:58:40.496Z,73.32
